createdAt,value
2022-12-08T00:01:41.173Z,3.10
2022-12-08T00:04:10.980Z,3.10
2022-12-08T00:07:00.256Z,3.20
2022-12-08T00:09:38.195Z,3.20
2022-12-08T00:12:10.671Z,3.20
2022-12-08T00:14:41.831Z,3.10
2022-12-08T00:17:12.260Z,3.10
2022-12-08T00:19:42.206Z,3.10
2022-12-08T00:22:14.707Z,3.10
2022-12-08T00:24:45.826Z,3.00
2022-12-08T00:27:18.026Z,3.10
2022-12-08T00:29:47.064Z,3.00
2022-12-08T00:32:15.379Z,3.00
2022-12-08T00:34:43.592Z,3.00
2022-12-08T00:37:13.002Z,3.00
2022-12-08T00:39:42.096Z,3.00
2022-12-08T00:42:13.475Z,3.00
2022-12-08T00:44:42.211Z,3.10
2022-12-08T00:47:10.638Z,3.10
2022-12-08T00:49:38.697Z,3.10
2022-12-08T00:52:07.857Z,3.10
2022-12-08T00:54:37.858Z,3.10
2022-12-08T00:57:06.022Z,3.10
2022-12-08T00:59:34.112Z,3.10
2022-12-08T01:02:02.221Z,3.10
2022-12-08T01:04:30.283Z,3.10
2022-12-08T01:06:58.336Z,3.20
2022-12-08T01:09:26.459Z,3.10
2022-12-08T01:11:55.883Z,3.20
2022-12-08T01:14:23.983Z,3.20
2022-12-08T01:16:52.143Z,3.20
2022-12-08T01:19:20.604Z,3.20
2022-12-08T01:21:49.016Z,3.20
2022-12-08T01:24:20.108Z,3.20
2022-12-08T01:26:48.945Z,3.30
2022-12-08T01:29:18.783Z,3.20
2022-12-08T01:31:46.896Z,3.30
2022-12-08T01:34:14.960Z,3.30
2022-12-08T01:36:44.368Z,3.30
2022-12-08T01:39:17.224Z,3.20
2022-12-08T01:41:47.664Z,3.30
2022-12-08T01:44:55.864Z,3.20
2022-12-08T01:47:30.469Z,3.20
2022-12-08T01:49:59.040Z,3.20
2022-12-08T01:52:33.476Z,3.20
2022-12-08T01:55:07.295Z,3.10
2022-12-08T01:57:42.340Z,3.10
2022-12-08T02:00:15.834Z,3.20
2022-12-08T02:02:55.182Z,3.20
2022-12-08T02:05:28.066Z,3.20
2022-12-08T02:07:58.894Z,3.10
2022-12-08T02:10:32.089Z,3.10
2022-12-08T02:13:01.996Z,3.10
2022-12-08T02:15:40.104Z,3.00
2022-12-08T02:18:26.134Z,3.00
2022-12-08T02:21:02.964Z,3.00
2022-12-08T02:23:46.005Z,3.00
2022-12-08T02:27:21.897Z,3.00
2022-12-08T02:30:08.274Z,3.00
2022-12-08T02:33:25.289Z,2.90
2022-12-08T02:36:00.952Z,3.00
2022-12-08T02:38:45.060Z,2.90
2022-12-08T02:41:28.785Z,2.90
2022-12-08T02:44:05.374Z,2.90
2022-12-08T02:46:39.330Z,2.90
2022-12-08T02:49:08.681Z,2.90
2022-12-08T02:51:38.176Z,2.90
2022-12-08T02:54:06.396Z,2.90
2022-12-08T02:57:09.305Z,2.90
2022-12-08T03:00:02.168Z,2.80
2022-12-08T03:02:49.812Z,2.80
2022-12-08T03:05:44.918Z,2.80
2022-12-08T03:08:22.940Z,2.90
2022-12-08T03:11:02.078Z,3.00
2022-12-08T03:13:39.588Z,2.90
2022-12-08T03:16:12.184Z,2.90
2022-12-08T03:18:46.270Z,3.00
2022-12-08T03:21:17.072Z,2.90
2022-12-08T03:23:51.250Z,2.90
2022-12-08T03:26:25.980Z,2.90
2022-12-08T03:28:54.294Z,3.00
2022-12-08T03:31:26.328Z,2.90
2022-12-08T03:33:59.429Z,2.90
2022-12-08T03:36:27.818Z,2.90
2022-12-08T03:38:57.192Z,2.90
2022-12-08T03:41:25.258Z,2.90
2022-12-08T03:43:55.650Z,2.90
2022-12-08T03:48:54.315Z,2.90
2022-12-08T03:51:24.429Z,2.90
2022-12-08T03:53:52.693Z,2.90
2022-12-08T03:56:26.777Z,2.90
2022-12-08T03:58:55.835Z,3.00
2022-12-08T04:01:24.761Z,3.00
2022-12-08T04:03:53.035Z,2.90
2022-12-08T04:06:22.362Z,2.90
2022-12-08T04:08:51.544Z,3.00
2022-12-08T04:11:22.161Z,3.00
2022-12-08T04:13:50.758Z,3.00
2022-12-08T04:16:22.698Z,3.00
2022-12-08T04:18:51.165Z,3.00
2022-12-08T04:21:19.708Z,3.00
2022-12-08T04:23:48.432Z,3.10
2022-12-08T04:26:16.978Z,3.10
2022-12-08T04:28:46.553Z,3.10
2022-12-08T04:31:14.872Z,3.10
2022-12-08T04:33:43.267Z,3.00
2022-12-08T04:36:11.468Z,3.10
2022-12-08T04:38:39.588Z,3.10
2022-12-08T04:41:07.998Z,3.10
2022-12-08T04:43:36.967Z,3.10
2022-12-08T04:46:10.057Z,3.00
2022-12-08T04:48:40.603Z,3.10
2022-12-08T04:51:16.712Z,3.10
2022-12-08T04:53:46.635Z,3.10
2022-12-08T04:56:17.176Z,3.20
2022-12-08T04:58:45.621Z,3.10
2022-12-08T05:01:15.552Z,3.20
2022-12-08T05:03:43.727Z,3.10
2022-12-08T05:06:13.723Z,3.20
2022-12-08T05:08:42.123Z,3.10
2022-12-08T05:11:12.944Z,3.10
2022-12-08T05:13:41.296Z,3.10
2022-12-08T05:16:12.295Z,3.10
2022-12-08T05:18:43.241Z,3.10
2022-12-08T05:21:11.737Z,3.10
2022-12-08T05:23:41.207Z,3.10
2022-12-08T05:26:09.939Z,3.20
2022-12-08T05:28:42.333Z,3.10
2022-12-08T05:31:11.926Z,3.20
2022-12-08T05:33:42.282Z,3.20
2022-12-08T05:36:12.831Z,3.20
2022-12-08T05:38:41.653Z,3.10
2022-12-08T05:41:11.427Z,3.10
2022-12-08T05:43:39.543Z,3.10
2022-12-08T05:46:09.345Z,3.10
2022-12-08T05:48:37.940Z,3.10
2022-12-08T05:51:19.921Z,3.10
2022-12-08T05:53:49.769Z,3.10
2022-12-08T05:56:18.900Z,3.20
2022-12-08T05:58:47.595Z,3.20
2022-12-08T06:01:24.587Z,3.20
2022-12-08T06:03:53.873Z,3.20
2022-12-08T06:06:23.899Z,3.20
2022-12-08T06:08:53.000Z,3.20
2022-12-08T06:11:24.383Z,3.20
2022-12-08T06:13:53.675Z,3.20
2022-12-08T06:16:22.360Z,3.20
2022-12-08T06:18:51.883Z,3.20
2022-12-08T06:21:21.114Z,3.10
2022-12-08T06:23:52.549Z,3.10
2022-12-08T06:26:22.096Z,3.10
2022-12-08T06:28:51.713Z,3.10
2022-12-08T06:31:22.682Z,3.10
2022-12-08T06:33:51.524Z,3.10
2022-12-08T06:36:22.820Z,3.10
2022-12-08T06:38:55.398Z,3.10
2022-12-08T06:41:23.729Z,3.10
2022-12-08T06:43:52.042Z,3.10
2022-12-08T06:46:21.505Z,3.10
2022-12-08T06:48:50.563Z,3.10
2022-12-08T06:51:22.670Z,3.10
2022-12-08T06:53:51.270Z,3.10
2022-12-08T06:56:22.330Z,3.10
2022-12-08T06:58:52.760Z,3.10
2022-12-08T07:01:21.437Z,3.10
2022-12-08T07:03:49.739Z,3.10
2022-12-08T07:06:23.423Z,3.10
2022-12-08T07:08:52.049Z,3.10
2022-12-08T07:11:22.728Z,3.10
2022-12-08T07:13:51.261Z,3.10
2022-12-08T07:16:19.938Z,3.00
2022-12-08T07:18:48.170Z,3.00
2022-12-08T07:21:17.683Z,3.00
2022-12-08T07:23:52.720Z,3.00
2022-12-08T07:26:27.286Z,3.00
2022-12-08T07:28:55.418Z,3.00
2022-12-08T07:31:26.379Z,3.00
2022-12-08T07:33:55.427Z,3.00
2022-12-08T07:36:24.506Z,3.00
2022-12-08T07:38:54.195Z,3.10
2022-12-08T07:41:26.890Z,3.10
2022-12-08T07:43:56.721Z,3.10
2022-12-08T07:46:27.367Z,3.10
2022-12-08T07:48:57.014Z,3.10
2022-12-08T07:51:26.054Z,3.10
2022-12-08T07:53:55.298Z,3.10
2022-12-08T07:56:25.680Z,3.10
2022-12-08T07:58:54.025Z,3.10
2022-12-08T08:01:25.985Z,3.10
2022-12-08T08:03:55.623Z,3.20
2022-12-08T08:06:24.078Z,3.20
2022-12-08T08:08:52.269Z,3.20
2022-12-08T08:11:21.739Z,3.20
2022-12-08T08:13:52.442Z,3.20
2022-12-08T08:16:21.784Z,3.20
2022-12-08T08:18:51.521Z,3.20
2022-12-08T08:21:44.292Z,3.20
2022-12-08T08:24:10.210Z,3.20
2022-12-08T08:26:38.644Z,3.20
2022-12-08T08:29:08.091Z,3.20
2022-12-08T08:31:36.384Z,3.20
2022-12-08T08:34:06.255Z,3.20
2022-12-08T08:36:34.716Z,3.30
2022-12-08T08:39:02.841Z,3.30
2022-12-08T08:41:30.920Z,3.30
2022-12-08T08:43:59.035Z,3.40
2022-12-08T08:46:28.540Z,3.40
2022-12-08T08:48:56.781Z,3.40
2022-12-08T08:51:25.023Z,3.40
2022-12-08T08:53:53.142Z,3.40
2022-12-08T08:56:21.378Z,3.40
2022-12-08T08:58:50.893Z,3.40
2022-12-08T09:01:22.900Z,3.40
2022-12-08T09:03:53.058Z,3.40
2022-12-08T09:06:22.542Z,3.40
2022-12-08T09:08:51.516Z,3.40
2022-12-08T09:11:19.928Z,3.50
2022-12-08T09:13:49.936Z,3.50
2022-12-08T09:16:19.200Z,3.60
2022-12-08T09:18:49.312Z,3.60
2022-12-08T09:21:22.713Z,3.60
2022-12-08T09:23:51.561Z,3.60
2022-12-08T09:26:22.297Z,3.60
2022-12-08T09:28:50.966Z,3.60
2022-12-08T09:31:21.397Z,3.60
2022-12-08T09:33:51.549Z,3.60
2022-12-08T09:36:22.983Z,3.60
2022-12-08T09:38:53.445Z,3.70
2022-12-08T09:41:38.765Z,3.70
2022-12-08T09:44:39.191Z,3.70
2022-12-08T09:47:19.881Z,3.70
2022-12-08T09:49:57.652Z,3.70
2022-12-08T09:52:34.658Z,3.70
2022-12-08T09:55:13.426Z,3.70
2022-12-08T09:57:41.508Z,3.70
2022-12-08T10:00:15.280Z,3.70
2022-12-08T10:02:45.856Z,3.80
2022-12-08T10:05:15.719Z,3.70
2022-12-08T10:07:50.126Z,3.70
2022-12-08T10:10:31.807Z,3.70
2022-12-08T10:13:12.827Z,3.70
2022-12-08T10:15:48.856Z,3.70
2022-12-08T10:18:21.369Z,3.60
2022-12-08T10:20:52.202Z,3.60
2022-12-08T10:23:31.158Z,3.50
2022-12-08T10:26:04.527Z,3.50
2022-12-08T10:28:36.717Z,3.50
2022-12-08T10:31:07.207Z,3.50
2022-12-08T10:33:35.735Z,3.50
2022-12-08T10:36:04.908Z,3.50
2022-12-08T10:38:36.826Z,3.50
2022-12-08T10:41:12.271Z,3.40
2022-12-08T10:43:47.197Z,3.40
2022-12-08T10:46:19.837Z,3.40
2022-12-08T10:48:54.724Z,3.40
2022-12-08T10:51:27.921Z,3.40
2022-12-08T10:53:57.903Z,3.40
2022-12-08T10:56:29.465Z,3.50
2022-12-08T10:59:15.637Z,3.40
2022-12-08T11:01:47.910Z,3.40
2022-12-08T11:04:20.994Z,3.40
2022-12-08T11:06:51.443Z,3.40
2022-12-08T11:09:43.832Z,3.40
2022-12-08T11:12:16.607Z,3.40
2022-12-08T11:14:52.504Z,3.40
2022-12-08T11:17:28.465Z,3.30
2022-12-08T11:19:59.972Z,3.30
2022-12-08T11:22:32.523Z,3.30
2022-12-08T11:25:11.370Z,3.30
2022-12-08T11:27:44.314Z,3.40
2022-12-08T11:30:18.349Z,3.40
2022-12-08T11:32:49.473Z,3.40
2022-12-08T11:35:26.571Z,3.40
2022-12-08T11:38:13.447Z,3.40
2022-12-08T11:40:52.786Z,3.40
2022-12-08T11:43:30.831Z,3.50
2022-12-08T11:46:03.447Z,3.50
2022-12-08T11:48:37.585Z,3.60
2022-12-08T11:51:14.613Z,3.60
2022-12-08T11:53:54.116Z,3.60
2022-12-08T11:56:35.617Z,3.70
2022-12-08T11:59:14.025Z,3.70
2022-12-08T12:01:42.843Z,3.70
2022-12-08T12:04:22.470Z,3.70
2022-12-08T12:07:21.718Z,3.70
2022-12-08T12:10:14.754Z,3.60
2022-12-08T12:13:03.754Z,3.60
2022-12-08T12:16:18.564Z,3.60
2022-12-08T12:18:52.871Z,3.60
2022-12-08T12:21:27.293Z,3.60
2022-12-08T12:24:00.046Z,3.60
2022-12-08T12:26:32.556Z,3.60
2022-12-08T12:29:08.488Z,3.60
2022-12-08T12:31:42.383Z,3.50
2022-12-08T12:34:19.932Z,3.50
2022-12-08T12:36:51.745Z,3.50
2022-12-08T12:39:25.634Z,3.50
2022-12-08T12:41:58.049Z,3.60
2022-12-08T12:44:44.314Z,3.60
2022-12-08T12:47:36.403Z,3.60
2022-12-08T12:50:09.989Z,3.60
2022-12-08T12:52:46.283Z,3.50
2022-12-08T12:55:50.604Z,3.50
2022-12-08T12:58:43.305Z,3.50
2022-12-08T13:01:58.540Z,3.50
2022-12-08T13:04:37.510Z,3.50
2022-12-08T13:07:06.450Z,3.40
2022-12-08T13:09:39.786Z,3.40
2022-12-08T13:12:23.881Z,3.40
2022-12-08T13:14:54.917Z,3.50
2022-12-08T13:17:32.033Z,3.50
2022-12-08T13:20:06.852Z,3.50
2022-12-08T13:23:14.838Z,3.40
2022-12-08T13:26:07.506Z,3.40
2022-12-08T13:28:55.604Z,3.40
2022-12-08T13:31:41.657Z,3.40
2022-12-08T13:34:21.110Z,3.40
2022-12-08T13:37:04.722Z,3.50
2022-12-08T13:39:43.232Z,3.40
2022-12-08T13:42:22.734Z,3.40
2022-12-08T13:48:20.412Z,3.50
2022-12-08T13:51:07.054Z,3.50
2022-12-08T13:57:05.167Z,3.60
2022-12-08T13:59:31.762Z,3.50
2022-12-08T14:02:05.531Z,3.60
2022-12-08T14:04:54.317Z,3.50
2022-12-08T14:07:24.831Z,3.50
2022-12-08T14:09:53.992Z,3.50
2022-12-08T14:12:25.802Z,3.50
2022-12-08T14:15:03.757Z,3.40
2022-12-08T14:17:33.175Z,3.50
2022-12-08T14:20:14.973Z,3.40
2022-12-08T14:22:46.320Z,3.50
2022-12-08T14:25:17.914Z,3.50
2022-12-08T14:27:47.644Z,3.50
2022-12-08T14:30:22.891Z,3.50
2022-12-08T14:32:55.942Z,3.50
2022-12-08T14:35:28.560Z,3.50
2022-12-08T14:38:00.968Z,3.50
2022-12-08T14:40:34.686Z,3.50
2022-12-08T14:43:18.777Z,3.50
2022-12-08T14:45:50.584Z,3.40
2022-12-08T14:48:27.403Z,3.40
2022-12-08T14:51:05.071Z,3.40
2022-12-08T14:53:42.195Z,3.40
2022-12-08T14:56:19.797Z,3.50
2022-12-08T14:58:49.923Z,3.40
2022-12-08T15:01:24.318Z,3.50
2022-12-08T15:03:54.616Z,3.50
2022-12-08T15:06:23.458Z,3.40
2022-12-08T15:08:59.726Z,3.40
2022-12-08T15:11:36.192Z,3.40
2022-12-08T15:14:04.614Z,3.40
2022-12-08T15:16:44.666Z,3.50
2022-12-08T15:19:27.565Z,3.40
2022-12-08T15:21:57.795Z,3.40
2022-12-08T15:24:31.664Z,3.40
2022-12-08T15:26:59.814Z,3.40
2022-12-08T15:29:30.955Z,3.30
2022-12-08T15:32:02.591Z,3.40
2022-12-08T15:34:31.580Z,3.40
2022-12-08T15:36:59.665Z,3.40
2022-12-08T15:39:38.072Z,3.40
2022-12-08T15:42:13.859Z,3.40
2022-12-08T15:44:43.155Z,3.40
2022-12-08T15:47:18.759Z,3.40
2022-12-08T15:49:48.095Z,3.50
2022-12-08T15:52:20.216Z,3.50
2022-12-08T15:54:50.039Z,3.50
2022-12-08T15:57:44.157Z,3.40
2022-12-08T16:09:14.943Z,3.40
2022-12-08T16:12:07.840Z,3.40
2022-12-08T16:17:27.284Z,3.30
2022-12-08T16:19:55.958Z,3.30
2022-12-08T16:25:20.396Z,3.30
2022-12-08T16:28:37.066Z,3.30
2022-12-08T16:30:41.587Z,3.30
2022-12-08T16:33:12.902Z,3.30
2022-12-08T16:35:42.378Z,3.30
2022-12-08T16:38:15.633Z,3.30
2022-12-08T16:41:03.776Z,3.30
2022-12-08T16:43:36.008Z,3.20
2022-12-08T16:46:04.911Z,3.20
2022-12-08T16:48:33.175Z,3.20
2022-12-08T16:51:01.411Z,3.20
2022-12-08T16:53:29.464Z,3.10
2022-12-08T16:55:57.568Z,3.10
2022-12-08T16:58:25.691Z,3.20
2022-12-08T17:00:55.088Z,3.20
2022-12-08T17:03:23.215Z,3.10
2022-12-08T17:05:51.727Z,3.10
2022-12-08T17:08:19.826Z,3.10
2022-12-08T17:11:07.063Z,3.10
2022-12-08T17:13:36.528Z,3.00
2022-12-08T17:16:10.710Z,3.00
2022-12-08T17:18:39.798Z,3.00
2022-12-08T17:21:11.986Z,3.10
2022-12-08T17:23:41.716Z,3.10
2022-12-08T17:26:10.310Z,3.10
2022-12-08T17:28:59.527Z,3.10
2022-12-08T17:31:29.884Z,3.10
2022-12-08T17:33:59.921Z,3.10
2022-12-08T17:36:27.991Z,3.10
2022-12-08T17:38:56.266Z,3.00
2022-12-08T17:41:24.288Z,3.00
2022-12-08T17:43:52.831Z,3.00
2022-12-08T17:46:22.329Z,3.00
2022-12-08T17:48:51.871Z,3.10
2022-12-08T17:51:20.472Z,3.00
2022-12-08T17:53:48.546Z,3.00
2022-12-08T17:56:18.826Z,3.10
2022-12-08T17:58:52.591Z,3.10
2022-12-08T18:01:23.404Z,3.10
2022-12-08T18:03:53.067Z,3.20
2022-12-08T18:06:21.379Z,3.10
2022-12-08T18:08:49.492Z,3.10
2022-12-08T18:11:20.595Z,3.10
2022-12-08T18:13:50.715Z,3.00
2022-12-08T18:16:21.757Z,3.10
2022-12-08T18:18:53.382Z,3.10
2022-12-08T18:21:23.813Z,3.00
2022-12-08T18:23:52.378Z,3.00
2022-12-08T18:26:21.090Z,3.00
2022-12-08T18:28:49.601Z,3.00
2022-12-08T18:31:22.262Z,3.10
2022-12-08T18:33:53.074Z,3.10
2022-12-08T18:36:24.743Z,3.00
2022-12-08T18:38:53.962Z,3.00
2022-12-08T18:41:25.797Z,3.00
2022-12-08T18:43:56.991Z,3.00
2022-12-08T18:46:26.421Z,2.90
2022-12-08T18:48:56.104Z,3.00
2022-12-08T18:51:25.911Z,2.90
2022-12-08T18:53:54.537Z,3.00
2022-12-08T18:56:27.026Z,3.00
2022-12-08T18:59:01.319Z,3.00
2022-12-08T19:01:31.501Z,3.00
2022-12-08T19:06:50.052Z,3.00
2022-12-08T19:09:18.658Z,3.00
2022-12-08T19:11:46.900Z,3.00
2022-12-08T19:14:15.105Z,3.00
2022-12-08T19:16:43.230Z,3.00
2022-12-08T19:19:12.658Z,3.00
2022-12-08T19:21:46.122Z,3.00
2022-12-08T19:24:14.769Z,3.00
2022-12-08T19:26:43.637Z,3.00
2022-12-08T19:29:12.647Z,3.00
2022-12-08T19:31:41.484Z,3.00
2022-12-08T19:34:12.874Z,3.00
2022-12-08T19:36:43.229Z,3.00
2022-12-08T19:39:34.819Z,3.00
2022-12-08T19:42:20.172Z,3.00
2022-12-08T19:44:54.522Z,3.10
2022-12-08T19:47:24.601Z,3.00
2022-12-08T19:50:15.706Z,3.10
2022-12-08T19:52:44.839Z,3.10
2022-12-08T19:55:13.516Z,3.10
2022-12-08T19:57:41.831Z,3.10
2022-12-08T20:00:13.287Z,3.10
2022-12-08T20:02:41.418Z,3.00
2022-12-08T20:05:15.739Z,3.10
2022-12-08T20:07:44.427Z,3.00
2022-12-08T20:10:19.599Z,3.00
2022-12-08T20:12:47.702Z,3.10
2022-12-08T20:15:16.174Z,3.10
2022-12-08T20:17:44.683Z,3.10
2022-12-08T20:20:15.142Z,3.10
2022-12-08T20:22:45.062Z,3.10
2022-12-08T20:25:13.534Z,3.10
2022-12-08T20:27:42.463Z,3.00
2022-12-08T20:30:16.815Z,3.10
2022-12-08T20:32:45.734Z,3.10
2022-12-08T20:35:16.090Z,3.10
2022-12-08T20:37:44.383Z,3.10
2022-12-08T20:40:13.140Z,3.00
2022-12-08T20:42:41.665Z,3.00
2022-12-08T20:45:10.684Z,3.00
2022-12-08T20:47:39.133Z,3.00
2022-12-08T20:50:09.260Z,3.00
2022-12-08T20:52:39.299Z,3.00
2022-12-08T20:55:09.618Z,2.90
2022-12-08T20:57:37.984Z,2.90
2022-12-08T21:00:08.352Z,2.90
2022-12-08T21:02:39.265Z,2.90
2022-12-08T21:05:10.464Z,2.80
2022-12-08T21:07:40.306Z,2.80
2022-12-08T21:10:10.979Z,2.90
2022-12-08T21:12:39.347Z,2.90
2022-12-08T21:15:11.350Z,2.90
2022-12-08T21:17:39.839Z,2.90
2022-12-08T21:20:09.685Z,2.80
2022-12-08T21:22:39.931Z,2.90
2022-12-08T21:25:09.950Z,2.80
2022-12-08T21:27:39.454Z,2.80
2022-12-08T21:30:11.404Z,2.80
2022-12-08T21:32:40.746Z,2.90
2022-12-08T21:35:10.374Z,2.80
2022-12-08T21:37:39.994Z,2.80
2022-12-08T21:40:10.854Z,2.80
2022-12-08T21:42:45.740Z,2.80
2022-12-08T21:45:17.271Z,2.80
2022-12-08T21:47:47.970Z,2.80
2022-12-08T21:50:16.818Z,2.80
2022-12-08T21:52:49.986Z,2.70
2022-12-08T21:55:20.266Z,2.70
2022-12-08T21:57:48.502Z,2.70
2022-12-08T22:00:18.891Z,2.70
2022-12-08T22:02:47.776Z,2.80
2022-12-08T22:05:16.111Z,2.80
2022-12-08T22:07:44.278Z,2.70
2022-12-08T22:10:13.780Z,2.70
2022-12-08T22:12:42.180Z,2.80
2022-12-08T22:15:12.389Z,2.80
2022-12-08T22:17:44.173Z,2.80
2022-12-08T22:20:16.537Z,2.80
2022-12-08T22:22:46.026Z,2.70
2022-12-08T22:25:15.854Z,2.80
2022-12-08T22:27:44.133Z,2.70
2022-12-08T22:30:13.415Z,2.70
2022-12-08T22:32:42.340Z,2.70
2022-12-08T22:35:12.098Z,2.70
2022-12-08T22:37:40.460Z,2.70
2022-12-08T22:40:11.485Z,2.70
2022-12-08T22:42:41.309Z,2.70
2022-12-08T22:45:11.083Z,2.70
2022-12-08T22:47:39.484Z,2.70
2022-12-08T22:50:09.033Z,2.80
2022-12-08T22:52:37.767Z,2.80
2022-12-08T22:55:07.502Z,2.80
2022-12-08T22:57:35.657Z,2.80
2022-12-08T23:00:07.816Z,2.80
2022-12-08T23:02:38.247Z,2.80
2022-12-08T23:05:08.448Z,2.80
2022-12-08T23:07:36.617Z,2.80
2022-12-08T23:10:07.371Z,2.80
2022-12-08T23:12:36.133Z,2.70
2022-12-08T23:15:07.177Z,2.70
2022-12-08T23:17:35.438Z,2.80
2022-12-08T23:20:04.211Z,2.80
2022-12-08T23:22:32.788Z,2.80
2022-12-08T23:25:00.873Z,2.80
2022-12-08T23:27:28.934Z,2.70
2022-12-08T23:29:57.100Z,2.70
2022-12-08T23:32:27.475Z,2.70
2022-12-08T23:34:55.662Z,2.70
2022-12-08T23:37:23.689Z,2.70
2022-12-08T23:39:52.279Z,2.70
2022-12-08T23:42:20.354Z,2.70
2022-12-08T23:44:48.555Z,2.60
2022-12-08T23:47:16.736Z,2.70
2022-12-08T23:49:46.234Z,2.70
2022-12-08T23:52:15.104Z,2.80
2022-12-08T23:54:44.467Z,2.70
2022-12-08T23:57:12.771Z,2.80
2022-12-08T23:59:41.030Z,2.70
